createdAt,value
2019-01-02T00:01:35.815Z,86.87
2019-01-02T00:04:08.260Z,86.94
2019-01-02T00:06:40.277Z,85.48
2019-01-02T00:09:12.719Z,85.72
2019-01-02T00:11:44.723Z,85.85
2019-01-02T00:14:16.731Z,83.83
2019-01-02T00:16:48.959Z,84.33
2019-01-02T00:19:20.977Z,83.32
2019-01-02T00:21:53.374Z,84.39
2019-01-02T00:24:25.456Z,85.03
2019-01-02T00:26:57.505Z,83.60
2019-01-02T00:29:29.925Z,83.51
2019-01-02T00:32:01.893Z,83.88
2019-01-02T00:34:34.243Z,79.81
2019-01-02T00:37:06.235Z,82.79
2019-01-02T00:39:38.552Z,81.91
2019-01-02T00:42:11.253Z,83.46
2019-01-02T00:44:43.287Z,83.71
2019-01-02T00:47:15.264Z,83.50
2019-01-02T00:49:47.293Z,83.34
2019-01-02T00:52:19.692Z,83.16
2019-01-02T00:54:51.702Z,81.46
2019-01-02T00:57:23.992Z,81.50
2019-01-02T00:59:55.993Z,81.87
2019-01-02T01:02:28.421Z,83.49
2019-01-02T01:05:00.441Z,85.03
2019-01-02T01:07:32.863Z,85.15
2019-01-02T01:10:07.799Z,86.76
2019-01-02T01:12:40.129Z,87.82
2019-01-02T01:15:12.150Z,87.13
2019-01-02T01:17:44.471Z,87.96
2019-01-02T01:20:18.528Z,89.57
2019-01-02T01:22:50.508Z,90.07
2019-01-02T01:25:22.923Z,90.21
2019-01-02T01:27:54.916Z,89.55
2019-01-02T01:30:26.929Z,89.15
2019-01-02T01:32:58.887Z,89.19
2019-01-02T01:35:30.897Z,86.71
2019-01-02T01:38:02.856Z,86.97
2019-01-02T01:40:34.836Z,87.50
2019-01-02T01:43:06.847Z,88.05
2019-01-02T01:45:39.164Z,87.11
2019-01-02T01:48:11.137Z,87.86
2019-01-02T01:50:43.148Z,86.31
2019-01-02T01:53:15.451Z,86.85
2019-01-02T01:55:47.418Z,87.97
2019-01-02T01:58:19.407Z,88.03
2019-01-02T02:00:51.848Z,88.84
2019-01-02T02:03:23.845Z,88.91
2019-01-02T02:05:55.889Z,87.57
2019-01-02T02:08:28.281Z,87.93
2019-01-02T02:11:00.307Z,87.80
2019-01-02T02:13:32.296Z,87.06
2019-01-02T02:16:04.677Z,87.44
2019-01-02T02:18:36.660Z,87.51
2019-01-02T02:21:08.723Z,86.76
2019-01-02T02:23:40.715Z,87.76
2019-01-02T02:26:12.680Z,87.69
2019-01-02T02:28:45.073Z,87.66
2019-01-02T02:31:17.028Z,87.38
2019-01-02T02:33:49.258Z,87.37
2019-01-02T02:36:21.635Z,87.14
2019-01-02T02:38:53.917Z,87.19
2019-01-02T02:41:26.209Z,86.28
2019-01-02T02:43:58.585Z,86.47
2019-01-02T02:46:30.844Z,87.10
2019-01-02T02:49:02.841Z,86.46
2019-01-02T02:51:35.242Z,87.19
2019-01-02T02:54:07.713Z,87.27
2019-01-02T02:56:41.493Z,87.07
2019-01-02T02:59:13.854Z,87.25
2019-01-02T03:01:46.229Z,86.47
2019-01-02T03:04:18.307Z,85.76
2019-01-02T03:06:53.004Z,85.46
2019-01-02T03:09:24.583Z,84.46
2019-01-02T03:11:56.611Z,83.60
2019-01-02T03:14:28.565Z,85.60
2019-01-02T03:17:00.965Z,86.01
2019-01-02T03:19:33.241Z,85.37
2019-01-02T03:22:05.514Z,86.19
2019-01-02T03:24:37.852Z,85.78
2019-01-02T03:27:10.125Z,85.78
2019-01-02T03:29:42.081Z,86.44
2019-01-02T03:32:14.084Z,86.23
2019-01-02T03:34:46.457Z,86.97
2019-01-02T03:37:18.452Z,85.46
2019-01-02T03:39:50.443Z,85.50
2019-01-02T03:42:22.421Z,84.63
2019-01-02T03:44:54.364Z,83.19
2019-01-02T03:47:26.345Z,83.80
2019-01-02T03:49:58.284Z,84.26
2019-01-02T03:52:30.256Z,85.22
2019-01-02T03:55:02.242Z,85.00
2019-01-02T03:57:34.237Z,86.08
2019-01-02T04:00:09.202Z,85.54
2019-01-02T04:02:41.176Z,87.01
2019-01-02T04:05:14.991Z,85.92
2019-01-02T04:07:53.301Z,86.36
2019-01-02T04:10:26.146Z,86.57
2019-01-02T04:12:58.142Z,86.47
2019-01-02T04:15:30.113Z,86.92
2019-01-02T04:18:02.093Z,87.11
2019-01-02T04:20:34.060Z,87.03
2019-01-02T04:23:06.035Z,87.39
2019-01-02T04:25:37.984Z,86.27
2019-01-02T04:28:09.995Z,87.17
2019-01-02T04:30:41.966Z,86.61
2019-01-02T04:33:13.972Z,86.41
2019-01-02T04:35:45.935Z,87.55
2019-01-02T04:38:17.947Z,87.63
2019-01-02T04:40:49.895Z,87.89
2019-01-02T04:43:21.866Z,88.25
2019-01-02T04:45:53.833Z,87.95
2019-01-02T04:48:25.789Z,87.19
2019-01-02T04:50:57.779Z,86.98
2019-01-02T04:53:29.830Z,86.87
2019-01-02T04:56:03.420Z,87.34
2019-01-02T04:58:35.551Z,87.14
2019-01-02T05:01:07.540Z,86.14
2019-01-02T05:03:39.495Z,85.37
2019-01-02T05:06:11.608Z,86.04
2019-01-02T05:08:43.584Z,85.44
2019-01-02T05:11:15.609Z,86.78
2019-01-02T05:13:47.576Z,86.59
2019-01-02T05:16:19.546Z,86.97
2019-01-02T05:18:51.558Z,87.41
2019-01-02T05:21:23.586Z,87.52
2019-01-02T05:23:55.839Z,86.98
2019-01-02T05:26:27.805Z,87.04
2019-01-02T05:28:59.767Z,86.17
2019-01-02T05:31:31.961Z,85.93
2019-01-02T05:34:03.923Z,86.46
2019-01-02T05:36:35.931Z,86.78
2019-01-02T05:39:07.973Z,85.94
2019-01-02T05:41:39.968Z,86.35
2019-01-02T05:44:11.939Z,86.86
2019-01-02T05:46:43.949Z,86.46
2019-01-02T05:49:15.908Z,87.01
2019-01-02T05:51:47.892Z,86.99
2019-01-02T05:54:20.132Z,86.75
2019-01-02T05:56:52.146Z,85.45
2019-01-02T05:59:24.111Z,85.68
2019-01-02T06:01:56.119Z,85.28
2019-01-02T06:04:28.111Z,86.03
2019-01-02T06:07:00.080Z,85.37
2019-01-02T06:09:32.058Z,85.22
2019-01-02T06:12:04.077Z,84.86
2019-01-02T06:14:36.141Z,83.57
2019-01-02T06:17:08.131Z,82.21
2019-01-02T06:19:40.141Z,81.67
2019-01-02T06:22:12.137Z,83.42
2019-01-02T06:24:44.175Z,83.31
2019-01-02T06:27:16.155Z,81.73
2019-01-02T06:29:48.165Z,80.58
2019-01-02T06:32:20.146Z,83.55
2019-01-02T06:34:52.164Z,82.51
2019-01-02T06:37:24.162Z,82.68
2019-01-02T06:39:56.168Z,83.40
2019-01-02T06:42:28.141Z,81.20
2019-01-02T06:45:00.208Z,78.38
2019-01-02T06:47:32.252Z,80.53
2019-01-02T06:50:07.062Z,80.26
2019-01-02T06:52:39.064Z,81.86
2019-01-02T06:55:11.087Z,83.35
2019-01-02T06:57:43.045Z,82.33
2019-01-02T07:00:36.556Z,82.10
2019-01-02T07:03:08.544Z,79.73
2019-01-02T07:05:40.527Z,82.02
2019-01-02T07:08:12.491Z,82.43
2019-01-02T07:10:44.524Z,81.31
2019-01-02T07:13:16.516Z,79.04
2019-01-02T07:15:48.594Z,77.17
2019-01-02T07:18:20.553Z,78.03
2019-01-02T07:20:52.836Z,79.22
2019-01-02T07:23:24.796Z,78.23
2019-01-02T07:25:56.823Z,77.93
2019-01-02T07:28:28.793Z,78.56
2019-01-02T07:31:00.827Z,78.66
2019-01-02T07:34:23.467Z,79.34
2019-01-02T07:37:20.222Z,77.24
2019-01-02T07:40:26.844Z,76.95
2019-01-02T07:43:34.994Z,78.00
2019-01-02T07:46:53.229Z,78.61
2019-01-02T07:50:18.116Z,77.95
2019-01-02T07:53:19.095Z,78.32
2019-01-02T07:56:27.554Z,77.58
2019-01-02T07:59:45.255Z,77.69
2019-01-02T08:02:44.264Z,77.73
2019-01-02T08:06:05.483Z,77.54
2019-01-02T08:09:28.343Z,77.39
2019-01-02T08:12:31.275Z,78.51
2019-01-02T08:15:56.903Z,77.80
2019-01-02T08:19:15.793Z,76.96
2019-01-02T08:22:43.488Z,75.89
2019-01-02T08:25:41.495Z,77.51
2019-01-02T08:29:00.634Z,77.77
2019-01-02T08:32:11.433Z,75.40
2019-01-02T08:35:09.508Z,75.64
2019-01-02T08:38:21.096Z,78.08
2019-01-02T08:41:36.277Z,78.88
2019-01-02T08:44:34.144Z,77.70
2019-01-02T08:47:44.047Z,78.71
2019-01-02T08:50:53.679Z,77.03
2019-01-02T08:54:01.738Z,77.18
2019-01-02T08:57:36.517Z,76.69
2019-01-02T09:00:58.225Z,76.21
2019-01-02T09:04:20.948Z,76.99
2019-01-02T09:07:36.702Z,76.24
2019-01-02T09:10:50.946Z,77.87
2019-01-02T09:14:04.708Z,75.72
2019-01-02T09:17:04.560Z,76.08
2019-01-02T09:20:09.085Z,77.44
2019-01-02T09:23:28.718Z,76.39
2019-01-02T09:26:33.183Z,76.28
2019-01-02T09:29:37.727Z,74.66
2019-01-02T09:32:43.678Z,75.41
2019-01-02T09:35:42.277Z,75.75
2019-01-02T09:38:43.058Z,75.99
2019-01-02T09:41:42.707Z,75.79
2019-01-02T09:45:08.839Z,74.61
2019-01-02T09:48:01.473Z,72.41
2019-01-02T09:50:59.436Z,74.72
2019-01-02T09:54:24.699Z,74.92
2019-01-02T09:57:32.482Z,76.08
2019-01-02T10:01:07.576Z,73.95
2019-01-02T10:04:35.788Z,74.24
2019-01-02T10:07:29.341Z,73.22
2019-01-02T10:10:37.826Z,73.91
2019-01-02T10:14:12.998Z,75.01
2019-01-02T10:17:28.590Z,74.29
2019-01-02T10:20:30.994Z,73.97
2019-01-02T10:23:39.383Z,73.80
2019-01-02T10:26:28.898Z,74.13
2019-01-02T10:29:45.913Z,75.77
2019-01-02T10:32:49.286Z,75.95
2019-01-02T10:35:46.857Z,73.96
2019-01-02T10:39:09.602Z,75.01
2019-01-02T10:42:41.801Z,75.92
2019-01-02T10:45:39.940Z,76.19
2019-01-02T10:48:55.846Z,75.43
2019-01-02T10:52:23.488Z,75.67
2019-01-02T10:55:23.176Z,74.90
2019-01-02T10:58:36.638Z,74.58
2019-01-02T11:01:52.593Z,74.39
2019-01-02T11:05:05.522Z,74.17
2019-01-02T11:08:05.998Z,75.22
2019-01-02T11:11:34.696Z,75.30
2019-01-02T11:14:50.561Z,76.52
2019-01-02T11:17:47.267Z,75.19
2019-01-02T11:21:22.583Z,75.26
2019-01-02T11:24:39.465Z,74.88
2019-01-02T11:27:52.848Z,75.42
2019-01-02T11:30:41.038Z,75.96
2019-01-02T11:33:41.064Z,76.79
2019-01-02T11:37:04.129Z,78.00
2019-01-02T11:40:12.620Z,78.72
2019-01-02T11:43:22.025Z,78.83
2019-01-02T11:45:54.025Z,78.50
2019-01-02T11:48:26.068Z,77.70
2019-01-02T11:50:58.043Z,76.89
2019-01-02T11:53:30.072Z,76.96
2019-01-02T11:56:02.089Z,76.75
2019-01-02T11:58:34.110Z,76.48
2019-01-02T12:01:06.121Z,77.32
2019-01-02T12:03:38.145Z,77.74
2019-01-02T12:06:10.128Z,76.23
2019-01-02T12:08:42.187Z,77.15
2019-01-02T12:11:14.231Z,77.08
2019-01-02T12:13:46.282Z,76.61
2019-01-02T12:16:18.318Z,76.83
2019-01-02T12:18:50.317Z,76.66
2019-01-02T12:21:22.338Z,76.86
2019-01-02T12:23:54.378Z,75.41
2019-01-02T12:26:26.532Z,75.74
2019-01-02T12:28:58.598Z,75.85
2019-01-02T12:31:30.617Z,74.35
2019-01-02T12:34:02.652Z,75.17
2019-01-02T12:36:34.666Z,73.94
2019-01-02T12:39:06.798Z,73.63
2019-01-02T12:41:38.795Z,74.16
2019-01-02T12:44:10.785Z,73.63
2019-01-02T12:46:42.825Z,73.67
2019-01-02T12:49:14.827Z,74.96
2019-01-02T12:51:46.887Z,75.95
2019-01-02T12:54:18.898Z,75.15
2019-01-02T12:56:50.909Z,74.63
2019-01-02T12:59:25.505Z,74.22
2019-01-02T13:02:36.535Z,72.66
2019-01-02T13:05:47.416Z,73.68
2019-01-02T13:08:58.334Z,74.77
2019-01-02T13:12:09.291Z,74.60
2019-01-02T13:15:05.290Z,72.15
2019-01-02T13:18:16.251Z,71.64
2019-01-02T13:21:15.378Z,71.62
2019-01-02T13:24:15.159Z,72.26
2019-01-02T13:26:53.510Z,72.13
2019-01-02T13:30:04.563Z,71.18
2019-01-02T13:33:00.188Z,71.34
2019-01-02T13:36:11.130Z,72.16
2019-01-02T13:39:22.032Z,72.36
2019-01-02T13:42:27.018Z,72.15
2019-01-02T13:45:21.594Z,72.12
2019-01-02T13:48:32.559Z,71.07
2019-01-02T13:51:09.062Z,71.35
2019-01-02T13:53:41.088Z,71.83
2019-01-02T13:56:16.655Z,70.37
2019-01-02T13:58:48.710Z,70.19
2019-01-02T14:01:20.740Z,70.96
2019-01-02T14:03:55.947Z,71.29
2019-01-02T14:06:27.949Z,71.85
2019-01-02T14:08:59.986Z,72.00
2019-01-02T14:11:32.025Z,73.02
2019-01-02T14:14:04.037Z,72.84
2019-01-02T14:16:36.051Z,73.19
2019-01-02T14:19:08.133Z,72.10
2019-01-02T14:21:40.160Z,71.62
2019-01-02T14:24:12.157Z,70.68
2019-01-02T14:26:44.287Z,72.42
2019-01-02T14:29:16.320Z,73.05
2019-01-02T14:31:48.353Z,72.95
2019-01-02T14:34:20.397Z,73.02
2019-01-02T14:36:52.430Z,73.26
2019-01-02T14:39:24.456Z,72.96
2019-01-02T14:41:56.475Z,73.02
2019-01-02T14:44:28.460Z,74.28
2019-01-02T14:47:00.519Z,75.39
2019-01-02T14:49:32.527Z,77.19
2019-01-02T14:52:04.548Z,79.24
2019-01-02T14:54:36.545Z,79.90
2019-01-02T14:57:08.572Z,81.09
2019-01-02T14:59:40.562Z,80.12
2019-01-02T15:02:12.647Z,80.55
2019-01-02T15:04:44.632Z,81.03
2019-01-02T15:07:16.712Z,81.13
2019-01-02T15:09:48.742Z,81.10
2019-01-02T15:12:20.818Z,80.95
2019-01-02T15:14:52.858Z,81.91
2019-01-02T15:17:25.316Z,82.09
2019-01-02T15:19:58.835Z,82.68
2019-01-02T15:22:30.890Z,82.87
2019-01-02T15:25:02.992Z,82.96
2019-01-02T15:27:34.977Z,82.15
2019-01-02T15:30:10.318Z,82.46
2019-01-02T15:32:42.356Z,82.56
2019-01-02T15:35:14.372Z,82.13
2019-01-02T15:37:46.397Z,80.93
2019-01-02T15:40:18.370Z,81.48
2019-01-02T15:42:50.416Z,82.07
2019-01-02T15:45:22.394Z,81.93
2019-01-02T15:47:54.453Z,82.19
2019-01-02T15:50:26.459Z,82.20
2019-01-02T15:52:58.593Z,81.23
2019-01-02T15:55:30.649Z,80.92
2019-01-02T15:58:02.799Z,80.09
2019-01-02T16:00:34.833Z,79.42
2019-01-02T16:03:06.865Z,80.20
2019-01-02T16:05:38.879Z,76.83
2019-01-02T16:08:10.906Z,75.75
2019-01-02T16:11:02.511Z,76.13
2019-01-02T16:13:34.538Z,74.13
2019-01-02T16:16:06.597Z,73.33
2019-01-02T16:18:38.793Z,72.36
2019-01-02T16:27:44.996Z,70.83
2019-01-02T16:30:17.024Z,72.00
2019-01-02T16:32:49.055Z,73.13
2019-01-02T16:35:21.081Z,72.48
2019-01-02T16:37:53.123Z,71.86
2019-01-02T16:40:25.207Z,73.11
2019-01-02T16:42:57.219Z,72.97
2019-01-02T16:45:29.337Z,72.68
2019-01-02T16:48:01.365Z,71.79
2019-01-02T16:50:33.411Z,69.89
2019-01-02T16:53:05.473Z,70.57
2019-01-02T16:55:37.503Z,70.91
2019-01-02T16:58:09.581Z,71.05
2019-01-02T17:00:41.693Z,70.55
2019-01-02T17:03:13.779Z,71.38
2019-01-02T17:05:45.810Z,72.49
2019-01-02T17:08:17.842Z,72.28
2019-01-02T17:10:49.872Z,72.06
2019-01-02T17:13:21.982Z,71.04
2019-01-02T17:15:53.991Z,70.66
2019-01-02T17:18:26.030Z,69.75
2019-01-02T17:20:58.065Z,69.96
2019-01-02T17:23:30.117Z,71.59
2019-01-02T17:26:02.137Z,72.74
2019-01-02T17:28:34.306Z,71.95
2019-01-02T17:31:06.316Z,69.48
2019-01-02T17:33:38.370Z,67.90
2019-01-02T17:36:10.334Z,68.19
2019-01-02T17:38:42.374Z,69.20
2019-01-02T17:41:14.420Z,69.74
2019-01-02T17:43:46.485Z,70.19
2019-01-02T17:46:18.540Z,67.84
2019-01-02T17:48:50.559Z,68.26
2019-01-02T17:51:22.572Z,66.50
2019-01-02T17:53:55.896Z,67.89
2019-01-02T17:56:27.961Z,67.79
2019-01-02T17:59:00.018Z,69.27
2019-01-02T18:01:32.056Z,69.44
2019-01-02T18:04:04.098Z,66.70
2019-01-02T18:06:36.265Z,65.85
2019-01-02T18:09:08.525Z,67.36
2019-01-02T18:11:40.637Z,67.75
2019-01-02T18:14:12.758Z,67.57
2019-01-02T18:16:44.748Z,68.32
2019-01-02T18:19:17.145Z,68.28
2019-01-02T18:21:49.206Z,67.85
2019-01-02T18:24:21.333Z,67.89
2019-01-02T18:26:53.346Z,67.91
2019-01-02T18:29:25.377Z,67.98
2019-01-02T18:31:57.456Z,68.21
2019-01-02T18:34:29.521Z,67.24
2019-01-02T18:37:01.597Z,67.08
2019-01-02T18:39:34.150Z,67.45
2019-01-02T18:42:06.360Z,67.72
2019-01-02T18:44:38.446Z,67.75
2019-01-02T18:47:10.606Z,67.96
2019-01-02T18:49:42.661Z,67.21
2019-01-02T18:52:14.701Z,67.44
2019-01-02T18:54:46.758Z,65.44
2019-01-02T18:57:18.803Z,65.71
2019-01-02T18:59:50.876Z,65.01
2019-01-02T19:02:22.980Z,65.61
2019-01-02T19:04:55.039Z,65.57
2019-01-02T19:07:27.163Z,65.85
2019-01-02T19:09:59.219Z,65.67
2019-01-02T19:12:31.287Z,64.74
2019-01-02T19:15:04.120Z,64.46
2019-01-02T19:17:36.234Z,66.10
2019-01-02T19:20:08.219Z,63.80
2019-01-02T19:22:40.370Z,64.96
2019-01-02T19:25:12.473Z,65.10
2019-01-02T19:27:44.539Z,66.15
2019-01-02T19:30:16.617Z,66.17
2019-01-02T19:32:48.779Z,67.02
2019-01-02T19:35:20.940Z,67.14
2019-01-02T19:37:53.058Z,67.11
2019-01-02T19:40:25.159Z,66.89
2019-01-02T19:42:57.234Z,67.94
2019-01-02T19:45:29.330Z,68.35
2019-01-02T19:48:01.561Z,67.92
2019-01-02T19:50:33.636Z,67.48
2019-01-02T19:53:05.711Z,66.28
2019-01-02T19:55:37.789Z,66.69
2019-01-02T19:58:09.873Z,66.60
2019-01-02T20:00:41.934Z,66.72
2019-01-02T20:03:14.007Z,67.48
2019-01-02T20:05:46.098Z,68.03
2019-01-02T20:08:18.181Z,68.14
2019-01-02T20:10:50.315Z,68.94
2019-01-02T20:13:22.526Z,69.08
2019-01-02T20:16:22.027Z,69.07
2019-01-02T20:18:54.122Z,68.49
2019-01-02T20:21:26.178Z,69.13
2019-01-02T20:23:58.272Z,68.66
2019-01-02T20:26:31.752Z,69.01
2019-01-02T20:29:04.060Z,68.99
2019-01-02T20:31:36.146Z,68.58
2019-01-02T20:34:08.164Z,68.32
2019-01-02T20:36:40.786Z,68.14
2019-01-02T20:39:13.216Z,68.35
2019-01-02T20:41:45.310Z,68.11
2019-01-02T20:44:17.330Z,67.69
2019-01-02T20:46:49.430Z,68.63
2019-01-02T20:49:21.495Z,68.85
2019-01-02T20:51:53.617Z,68.16
2019-01-02T20:54:25.630Z,68.46
2019-01-02T20:56:57.722Z,68.54
2019-01-02T20:59:29.741Z,68.87
2019-01-02T21:02:01.813Z,69.16
2019-01-02T21:04:33.884Z,69.41
2019-01-02T21:07:05.963Z,70.02
2019-01-02T21:09:37.962Z,70.00
2019-01-02T21:12:09.997Z,70.15
2019-01-02T21:14:42.101Z,70.76
2019-01-02T21:17:14.159Z,70.91
2019-01-02T21:19:46.227Z,70.95
2019-01-02T21:22:18.304Z,70.21
2019-01-02T21:24:50.347Z,70.74
2019-01-02T21:27:22.364Z,71.28
2019-01-02T21:29:54.406Z,71.63
2019-01-02T21:32:26.450Z,71.91
2019-01-02T21:34:58.509Z,71.95
2019-01-02T21:37:30.645Z,72.08
2019-01-02T21:40:03.011Z,72.10
2019-01-02T21:42:35.139Z,72.92
2019-01-02T21:45:07.291Z,73.35
2019-01-02T21:47:39.384Z,73.73
2019-01-02T21:50:11.388Z,74.25
2019-01-02T21:52:43.450Z,74.17
2019-01-02T21:55:15.519Z,74.54
2019-01-02T21:57:48.167Z,74.99
2019-01-02T22:00:20.358Z,75.02
2019-01-02T22:02:52.483Z,75.19
2019-01-02T22:05:24.505Z,76.35
2019-01-02T22:07:56.571Z,76.54
2019-01-02T22:10:28.618Z,76.77
2019-01-02T22:13:00.791Z,76.69
2019-01-02T22:15:32.860Z,76.84
2019-01-02T22:18:05.079Z,77.19
2019-01-02T22:20:37.119Z,77.55
2019-01-02T22:23:09.224Z,77.54
2019-01-02T22:25:41.223Z,77.72
2019-01-02T22:28:13.284Z,77.56
2019-01-02T22:30:45.352Z,77.89
2019-01-02T22:33:17.411Z,77.87
2019-01-02T22:35:49.484Z,77.78
2019-01-02T22:38:21.516Z,78.43
2019-01-02T22:40:53.574Z,78.60
2019-01-02T22:43:25.615Z,78.81
2019-01-02T22:45:57.666Z,78.59
2019-01-02T22:48:29.701Z,78.72
2019-01-02T22:51:01.762Z,78.87
2019-01-02T22:53:33.793Z,78.76
2019-01-02T22:56:06.798Z,79.19
2019-01-02T22:58:39.054Z,79.37
2019-01-02T23:01:39.767Z,79.32
2019-01-02T23:04:21.781Z,79.50
2019-01-02T23:07:11.978Z,79.22
2019-01-02T23:10:06.227Z,78.91
2019-01-02T23:13:03.667Z,78.47
2019-01-02T23:15:54.100Z,78.23
2019-01-02T23:18:44.580Z,78.50
2019-01-02T23:21:35.054Z,79.13
2019-01-02T23:24:42.008Z,79.16
2019-01-02T23:27:32.344Z,79.61
2019-01-02T23:30:23.424Z,78.81
2019-01-02T23:33:30.504Z,78.36
2019-01-02T23:36:20.661Z,78.24
2019-01-02T23:39:11.449Z,78.36
2019-01-02T23:42:01.951Z,78.60
2019-01-02T23:44:52.404Z,78.56
2019-01-02T23:47:42.658Z,78.82
2019-01-02T23:50:33.091Z,79.43
2019-01-02T23:53:33.940Z,79.63
2019-01-02T23:56:24.247Z,79.96
2019-01-02T23:59:24.891Z,80.04
